createdAt,value
2023-05-10T00:00:15.690Z,1.83
2023-05-10T00:02:44.117Z,2.25
2023-05-10T00:05:11.827Z,2.25
2023-05-10T00:07:39.354Z,2.53
2023-05-10T00:10:07.310Z,2.67
2023-05-10T00:12:34.773Z,2.10
2023-05-10T00:15:02.520Z,3.35
2023-05-10T00:17:30.060Z,2.35
2023-05-10T00:19:57.614Z,2.25
2023-05-10T00:22:25.046Z,2.95
2023-05-10T00:24:52.702Z,1.88
2023-05-10T00:27:20.155Z,1.98
2023-05-10T00:29:47.657Z,1.85
2023-05-10T00:32:15.178Z,3.03
2023-05-10T00:34:43.555Z,2.35
2023-05-10T00:37:11.010Z,2.55
2023-05-10T00:39:38.502Z,1.88
2023-05-10T00:42:06.365Z,2.90
2023-05-10T00:44:34.260Z,2.47
2023-05-10T00:47:01.807Z,2.20
2023-05-10T00:49:29.851Z,2.42
2023-05-10T00:51:57.594Z,2.40
2023-05-10T00:54:25.467Z,2.55
2023-05-10T00:56:52.986Z,2.38
2023-05-10T00:59:21.103Z,1.95
2023-05-10T01:01:48.688Z,2.28
2023-05-10T01:04:16.852Z,2.10
2023-05-10T01:06:44.582Z,1.90
2023-05-10T01:09:12.981Z,2.13
2023-05-10T01:11:41.039Z,2.53
2023-05-10T01:14:09.179Z,1.75
2023-05-10T01:16:41.742Z,2.85
2023-05-10T01:19:18.473Z,2.20
2023-05-10T01:22:11.440Z,1.88
2023-05-10T01:24:47.912Z,2.67
2023-05-10T01:27:15.391Z,2.38
2023-05-10T01:32:58.238Z,1.83
2023-05-10T01:35:40.626Z,2.13
2023-05-10T01:38:24.481Z,2.63
2023-05-10T01:41:01.426Z,2.13
2023-05-10T01:43:35.457Z,2.42
2023-05-10T01:46:18.904Z,2.47
2023-05-10T01:48:54.651Z,2.20
2023-05-10T01:51:25.570Z,2.40
2023-05-10T01:54:02.887Z,2.55
2023-05-10T01:56:33.138Z,2.67
2023-05-10T01:59:02.361Z,3.10
2023-05-10T02:01:30.730Z,2.55
2023-05-10T02:03:59.349Z,3.50
2023-05-10T02:06:28.357Z,2.58
2023-05-10T02:08:56.870Z,2.58
2023-05-10T02:11:26.674Z,2.30
2023-05-10T02:13:55.099Z,2.22
2023-05-10T02:16:28.650Z,2.50
2023-05-10T02:18:59.785Z,2.78
2023-05-10T02:21:29.140Z,2.10
2023-05-10T02:23:58.243Z,2.75
2023-05-10T02:26:27.722Z,2.38
2023-05-10T02:28:57.248Z,2.55
2023-05-10T02:31:25.922Z,2.78
2023-05-10T02:33:55.319Z,2.80
2023-05-10T02:36:24.304Z,2.00
2023-05-10T02:38:53.924Z,2.65
2023-05-10T02:41:23.930Z,2.63
2023-05-10T02:44:00.505Z,2.58
2023-05-10T02:46:28.443Z,2.25
2023-05-10T02:48:57.292Z,2.60
2023-05-10T02:51:29.413Z,2.75
2023-05-10T02:53:58.569Z,2.60
2023-05-10T02:56:37.593Z,1.90
2023-05-10T02:59:05.175Z,2.55
2023-05-10T03:01:33.384Z,2.30
2023-05-10T03:04:00.927Z,2.60
2023-05-10T03:06:29.707Z,2.40
2023-05-10T03:08:57.772Z,2.50
2023-05-10T03:12:13.075Z,3.15
2023-05-10T03:15:02.575Z,2.90
2023-05-10T03:17:49.222Z,2.55
2023-05-10T03:20:23.561Z,2.60
2023-05-10T03:23:03.860Z,2.45
2023-05-10T03:25:32.862Z,3.33
2023-05-10T03:28:03.462Z,2.97
2023-05-10T03:30:32.807Z,2.55
2023-05-10T03:33:07.411Z,2.45
2023-05-10T03:35:38.632Z,3.00
2023-05-10T03:38:06.753Z,2.50
2023-05-10T03:40:34.299Z,3.15
2023-05-10T03:43:01.941Z,2.90
2023-05-10T03:45:29.451Z,2.92
2023-05-10T03:47:57.451Z,2.80
2023-05-10T03:50:25.966Z,2.75
2023-05-10T03:52:54.851Z,3.25
2023-05-10T03:55:23.491Z,2.95
2023-05-10T03:57:51.745Z,2.42
2023-05-10T04:00:19.504Z,2.85
2023-05-10T04:02:51.319Z,2.67
2023-05-10T04:05:20.868Z,2.50
2023-05-10T04:07:50.294Z,2.60
2023-05-10T04:10:18.038Z,3.03
2023-05-10T04:12:45.733Z,3.20
2023-05-10T04:15:13.343Z,2.33
2023-05-10T04:20:09.444Z,2.53
2023-05-10T04:22:36.868Z,2.63
2023-05-10T04:25:05.595Z,2.92
2023-05-10T04:27:33.138Z,2.70
2023-05-10T04:30:00.896Z,2.53
2023-05-10T04:32:28.288Z,2.72
2023-05-10T04:34:55.964Z,2.72
2023-05-10T04:37:24.092Z,2.33
2023-05-10T04:39:51.659Z,2.65
2023-05-10T04:42:19.116Z,2.63
2023-05-10T04:44:46.517Z,2.40
2023-05-10T04:49:41.660Z,2.55
2023-05-10T04:54:36.532Z,2.15
2023-05-10T04:57:04.420Z,2.63
2023-05-10T04:59:31.924Z,2.83
2023-05-10T05:01:59.487Z,2.30
2023-05-10T05:04:27.080Z,3.53
2023-05-10T05:06:54.469Z,3.15
2023-05-10T05:09:21.971Z,3.13
2023-05-10T05:11:49.744Z,3.22
2023-05-10T05:14:17.263Z,2.75
2023-05-10T05:16:44.726Z,2.50
2023-05-10T05:19:12.233Z,2.88
2023-05-10T05:21:39.707Z,2.75
2023-05-10T05:24:07.808Z,2.60
2023-05-10T05:26:35.233Z,2.80
2023-05-10T05:29:02.964Z,2.70
2023-05-10T05:31:30.573Z,2.63
2023-05-10T05:33:58.112Z,2.60
2023-05-10T05:36:25.774Z,3.97
2023-05-10T05:38:53.274Z,3.17
2023-05-10T05:41:21.116Z,4.43
2023-05-10T05:43:48.801Z,2.30
2023-05-10T05:46:16.190Z,2.53
2023-05-10T05:48:43.738Z,3.13
2023-05-10T05:51:11.808Z,2.60
2023-05-10T05:53:39.269Z,3.03
2023-05-10T05:56:06.907Z,2.60
2023-05-10T05:58:34.458Z,2.70
2023-05-10T06:01:02.297Z,2.83
2023-05-10T06:03:29.995Z,2.75
2023-05-10T06:05:57.971Z,3.20
2023-05-10T06:08:25.990Z,2.95
2023-05-10T06:10:53.926Z,3.70
2023-05-10T06:13:21.418Z,2.70
2023-05-10T06:15:48.798Z,3.05
2023-05-10T06:18:16.713Z,3.55
2023-05-10T06:20:44.235Z,2.45
2023-05-10T06:23:21.823Z,2.90
2023-05-10T06:25:49.338Z,2.85
2023-05-10T06:28:16.968Z,2.78
2023-05-10T06:30:44.572Z,3.28
2023-05-10T06:33:12.069Z,3.25
2023-05-10T06:35:40.010Z,2.50
2023-05-10T06:38:07.438Z,2.88
2023-05-10T06:40:34.980Z,2.83
2023-05-10T06:43:02.616Z,2.70
2023-05-10T06:45:30.262Z,3.90
2023-05-10T06:47:57.775Z,2.88
2023-05-10T06:50:25.911Z,3.30
2023-05-10T06:52:53.388Z,2.67
2023-05-10T06:55:21.193Z,3.15
2023-05-10T06:57:48.954Z,3.05
2023-05-10T07:00:17.249Z,2.88
2023-05-10T07:02:45.666Z,2.80
2023-05-10T07:05:13.392Z,3.28
2023-05-10T07:07:40.959Z,2.50
2023-05-10T07:10:09.036Z,2.58
2023-05-10T07:12:36.644Z,2.47
2023-05-10T07:15:04.575Z,2.70
2023-05-10T07:17:32.260Z,2.97
2023-05-10T07:20:00.245Z,2.97
2023-05-10T07:22:27.624Z,3.13
2023-05-10T07:24:55.890Z,3.28
2023-05-10T07:27:23.322Z,2.83
2023-05-10T07:29:55.773Z,3.03
2023-05-10T07:32:23.540Z,2.45
2023-05-10T07:34:51.302Z,2.63
2023-05-10T07:37:18.889Z,2.78
2023-05-10T07:39:46.397Z,2.65
2023-05-10T07:42:14.056Z,2.78
2023-05-10T07:44:41.476Z,2.70
2023-05-10T07:47:08.969Z,3.40
2023-05-10T07:49:36.722Z,2.83
2023-05-10T07:52:04.702Z,3.20
2023-05-10T07:54:32.469Z,3.10
2023-05-10T07:57:00.847Z,2.92
2023-05-10T07:59:28.297Z,2.55
2023-05-10T08:01:55.968Z,2.90
2023-05-10T08:04:23.955Z,2.65
2023-05-10T08:06:51.519Z,2.85
2023-05-10T08:09:18.995Z,2.38
2023-05-10T08:11:46.522Z,2.72
2023-05-10T08:14:14.007Z,2.42
2023-05-10T08:16:41.502Z,2.17
2023-05-10T08:19:09.182Z,2.60
2023-05-10T08:21:37.191Z,2.90
2023-05-10T08:24:04.974Z,2.17
2023-05-10T08:26:34.802Z,2.90
2023-05-10T08:29:02.704Z,2.40
2023-05-10T08:31:30.590Z,2.38
2023-05-10T08:33:58.190Z,2.60
2023-05-10T08:36:25.849Z,3.00
2023-05-10T08:38:53.434Z,2.30
2023-05-10T08:41:22.500Z,2.30
2023-05-10T08:43:54.947Z,2.42
2023-05-10T08:46:24.463Z,2.20
2023-05-10T08:48:53.203Z,2.75
2023-05-10T08:51:24.900Z,1.98
2023-05-10T08:53:52.540Z,2.45
2023-05-10T08:56:21.401Z,2.05
2023-05-10T08:58:50.037Z,2.08
2023-05-10T09:01:19.396Z,2.05
2023-05-10T09:03:47.751Z,1.45
2023-05-10T09:06:15.759Z,2.90
2023-05-10T09:08:43.984Z,1.92
2023-05-10T09:11:12.718Z,1.77
2023-05-10T09:13:40.498Z,2.03
2023-05-10T09:16:20.395Z,2.00
2023-05-10T09:18:50.937Z,2.15
2023-05-10T09:21:18.493Z,2.47
2023-05-10T09:23:48.653Z,2.10
2023-05-10T09:26:17.264Z,2.33
2023-05-10T09:28:53.488Z,2.25
2023-05-10T09:31:21.510Z,2.50
2023-05-10T09:33:50.357Z,2.20
2023-05-10T09:36:18.728Z,2.53
2023-05-10T09:38:55.488Z,2.50
2023-05-10T09:43:52.493Z,2.88
2023-05-10T09:46:20.144Z,2.63
2023-05-10T09:48:48.825Z,2.67
2023-05-10T09:51:28.009Z,3.22
2023-05-10T09:54:15.015Z,2.00
2023-05-10T09:56:43.190Z,2.55
2023-05-10T09:59:12.697Z,2.95
2023-05-10T10:01:41.700Z,2.60
2023-05-10T10:04:11.451Z,2.50
2023-05-10T10:06:42.432Z,2.63
2023-05-10T10:09:10.328Z,2.20
2023-05-10T10:11:39.173Z,2.53
2023-05-10T10:14:07.280Z,2.10
2023-05-10T10:16:34.939Z,3.50
2023-05-10T10:19:03.050Z,2.00
2023-05-10T10:21:30.666Z,2.65
2023-05-10T10:23:58.195Z,2.80
2023-05-10T10:26:26.572Z,2.53
2023-05-10T10:29:39.068Z,1.70
2023-05-10T10:32:34.094Z,2.15
2023-05-10T10:35:02.139Z,1.83
2023-05-10T10:37:46.918Z,2.22
2023-05-10T10:40:32.824Z,2.50
2023-05-10T10:43:28.404Z,2.58
2023-05-10T10:46:16.154Z,2.38
2023-05-10T10:48:52.764Z,1.70
2023-05-10T10:51:20.398Z,1.85
2023-05-10T10:53:49.219Z,2.25
2023-05-10T10:56:16.735Z,2.88
2023-05-10T10:58:52.370Z,2.95
2023-05-10T11:01:20.716Z,1.92
2023-05-10T11:04:00.304Z,1.95
2023-05-10T11:06:36.034Z,4.05
2023-05-10T11:09:08.591Z,1.30
2023-05-10T11:11:37.605Z,1.50
2023-05-10T11:14:07.376Z,1.55
2023-05-10T11:16:45.271Z,1.38
2023-05-10T11:19:14.660Z,1.00
2023-05-10T11:21:47.851Z,1.08
2023-05-10T11:24:20.951Z,1.30
2023-05-10T11:26:51.473Z,1.17
2023-05-10T11:29:19.026Z,1.42
2023-05-10T11:31:48.104Z,1.92
2023-05-10T11:34:31.377Z,1.92
2023-05-10T11:36:59.543Z,1.95
2023-05-10T11:39:28.825Z,1.05
2023-05-10T11:41:57.121Z,0.90
2023-05-10T11:44:29.869Z,1.00
2023-05-10T11:47:02.989Z,0.77
2023-05-10T11:49:30.886Z,1.00
2023-05-10T11:52:08.601Z,0.90
2023-05-10T11:54:36.344Z,0.80
2023-05-10T11:57:04.086Z,1.17
2023-05-10T11:59:31.803Z,1.40
2023-05-10T12:01:59.480Z,1.25
2023-05-10T12:04:27.723Z,1.50
2023-05-10T12:06:55.209Z,1.70
2023-05-10T12:09:35.543Z,1.38
2023-05-10T12:12:10.841Z,4.13
2023-05-10T12:14:38.240Z,2.38
2023-05-10T12:17:05.719Z,1.60
2023-05-10T12:19:39.915Z,1.15
2023-05-10T12:22:07.709Z,1.10
2023-05-10T12:24:39.429Z,1.20
2023-05-10T12:27:09.350Z,1.30
2023-05-10T12:29:37.721Z,1.27
2023-05-10T12:32:05.403Z,2.03
2023-05-10T12:34:36.082Z,1.58
2023-05-10T12:37:04.642Z,1.67
2023-05-10T12:39:45.231Z,1.10
2023-05-10T12:42:13.134Z,1.63
2023-05-10T12:44:41.009Z,2.55
2023-05-10T12:47:08.636Z,1.88
2023-05-10T12:49:36.506Z,1.67
2023-05-10T12:52:04.139Z,2.13
2023-05-10T12:54:31.596Z,3.03
2023-05-10T12:56:59.143Z,1.77
2023-05-10T12:59:26.550Z,2.13
2023-05-10T13:01:54.006Z,1.77
2023-05-10T13:04:21.568Z,1.75
2023-05-10T13:06:49.224Z,1.58
2023-05-10T13:09:16.621Z,1.48
2023-05-10T13:11:44.193Z,1.67
2023-05-10T13:14:11.664Z,1.80
2023-05-10T13:16:39.144Z,1.83
2023-05-10T13:19:06.932Z,1.33
2023-05-10T13:21:34.607Z,1.63
2023-05-10T13:24:02.510Z,1.40
2023-05-10T13:26:30.200Z,1.52
2023-05-10T13:28:57.666Z,1.58
2023-05-10T13:31:25.282Z,1.50
2023-05-10T13:33:52.912Z,1.40
2023-05-10T13:36:20.477Z,1.15
2023-05-10T13:38:47.874Z,1.48
2023-05-10T13:41:15.438Z,1.33
2023-05-10T13:43:42.781Z,1.50
2023-05-10T13:46:10.287Z,1.42
2023-05-10T13:48:39.116Z,1.50
2023-05-10T13:51:06.913Z,1.10
2023-05-10T13:53:34.458Z,1.15
2023-05-10T13:56:03.378Z,1.45
2023-05-10T13:58:30.963Z,0.98
2023-05-10T14:00:59.040Z,1.10
2023-05-10T14:03:26.616Z,1.13
2023-05-10T14:05:54.114Z,0.80
2023-05-10T14:08:21.859Z,1.00
2023-05-10T14:10:50.052Z,1.08
2023-05-10T14:13:17.416Z,0.85
2023-05-10T14:15:45.125Z,0.82
2023-05-10T14:18:12.602Z,1.60
2023-05-10T14:20:40.339Z,1.02
2023-05-10T14:23:09.833Z,1.77
2023-05-10T14:25:41.583Z,0.95
2023-05-10T14:28:09.229Z,1.23
2023-05-10T14:30:36.753Z,1.30
2023-05-10T14:33:04.340Z,1.55
2023-05-10T14:35:34.763Z,1.88
2023-05-10T14:38:04.571Z,1.10
2023-05-10T14:40:32.150Z,1.17
2023-05-10T14:42:59.594Z,1.30
2023-05-10T14:45:27.589Z,1.80
2023-05-10T14:47:55.148Z,1.38
2023-05-10T14:50:35.936Z,2.00
2023-05-10T14:53:04.956Z,2.03
2023-05-10T14:55:32.460Z,1.52
2023-05-10T14:58:00.073Z,1.88
2023-05-10T15:00:29.031Z,1.90
2023-05-10T15:02:56.949Z,1.50
2023-05-10T15:05:25.153Z,3.45
2023-05-10T15:07:52.871Z,2.10
2023-05-10T15:10:20.524Z,2.20
2023-05-10T15:12:48.045Z,1.83
2023-05-10T15:15:16.232Z,2.83
2023-05-10T15:17:43.907Z,3.17
2023-05-10T15:20:11.888Z,2.50
2023-05-10T15:22:39.602Z,2.33
2023-05-10T15:25:07.665Z,1.80
2023-05-10T15:27:36.588Z,2.20
2023-05-10T15:30:04.485Z,1.90
2023-05-10T15:32:32.202Z,1.30
2023-05-10T15:34:59.689Z,2.33
2023-05-10T15:37:27.350Z,1.70
2023-05-10T15:39:56.339Z,2.42
2023-05-10T15:42:25.133Z,2.50
2023-05-10T15:44:55.457Z,1.85
2023-05-10T15:47:23.130Z,2.60
2023-05-10T15:49:50.766Z,3.70
2023-05-10T15:52:19.010Z,2.80
2023-05-10T15:54:46.588Z,1.67
2023-05-10T15:57:14.243Z,2.53
2023-05-10T15:59:41.843Z,2.58
2023-05-10T16:02:12.350Z,2.53
2023-05-10T16:04:40.112Z,1.90
2023-05-10T16:07:07.650Z,1.40
2023-05-10T16:09:35.081Z,1.70
2023-05-10T16:12:02.825Z,1.98
2023-05-10T16:14:30.590Z,1.77
2023-05-10T16:16:58.169Z,1.33
2023-05-10T16:19:29.117Z,1.50
2023-05-10T16:21:57.591Z,1.23
2023-05-10T16:24:25.998Z,1.63
2023-05-10T16:26:53.581Z,1.25
2023-05-10T16:29:21.011Z,1.58
2023-05-10T16:31:48.517Z,2.10
2023-05-10T16:34:16.533Z,1.70
2023-05-10T16:36:44.101Z,1.60
2023-05-10T16:39:11.543Z,1.30
2023-05-10T16:41:39.062Z,1.95
2023-05-10T16:44:12.291Z,1.70
2023-05-10T16:49:23.786Z,1.85
2023-05-10T16:51:53.387Z,3.60
2023-05-10T16:54:22.042Z,9.93
2023-05-10T16:56:49.619Z,6.55
2023-05-10T16:59:17.543Z,2.15
2023-05-10T17:01:46.218Z,2.22
2023-05-10T17:04:14.425Z,2.00
2023-05-10T17:06:42.271Z,1.63
2023-05-10T17:09:09.821Z,1.98
2023-05-10T17:11:37.396Z,1.80
2023-05-10T17:14:04.919Z,1.92
2023-05-10T17:16:32.446Z,1.77
2023-05-10T17:19:00.168Z,1.83
2023-05-10T17:21:27.798Z,1.73
2023-05-10T17:23:55.221Z,2.05
2023-05-10T17:26:22.717Z,1.70
2023-05-10T17:28:50.138Z,1.50
2023-05-10T17:31:18.604Z,2.10
2023-05-10T17:33:46.540Z,1.40
2023-05-10T17:36:14.032Z,1.50
2023-05-10T17:38:42.848Z,1.60
2023-05-10T17:41:10.549Z,2.00
2023-05-10T17:43:38.065Z,2.20
2023-05-10T17:46:05.590Z,2.17
2023-05-10T17:48:33.141Z,1.77
2023-05-10T17:51:00.608Z,1.80
2023-05-10T17:53:28.001Z,1.75
2023-05-10T17:55:58.981Z,1.60
2023-05-10T17:58:26.464Z,2.28
2023-05-10T18:00:54.743Z,2.33
2023-05-10T18:03:22.232Z,1.83
2023-05-10T18:05:49.866Z,2.20
2023-05-10T18:08:22.582Z,1.50
2023-05-10T18:10:50.065Z,2.25
2023-05-10T18:13:17.587Z,1.98
2023-05-10T18:15:45.175Z,1.67
2023-05-10T18:18:12.813Z,1.88
2023-05-10T18:20:41.287Z,0.90
2023-05-10T18:23:08.696Z,1.50
2023-05-10T18:25:36.296Z,1.00
2023-05-10T18:28:03.910Z,1.40
2023-05-10T18:30:31.629Z,1.10
2023-05-10T18:32:59.123Z,1.20
2023-05-10T18:35:26.666Z,1.38
2023-05-10T18:37:54.116Z,1.20
2023-05-10T18:40:21.703Z,1.77
2023-05-10T18:42:50.240Z,1.20
2023-05-10T18:45:18.116Z,2.15
2023-05-10T18:47:46.022Z,1.25
2023-05-10T18:50:13.559Z,1.35
2023-05-10T18:52:40.917Z,1.33
2023-05-10T18:55:09.619Z,1.80
2023-05-10T18:57:41.317Z,1.77
2023-05-10T19:00:11.342Z,1.92
2023-05-10T19:02:40.052Z,1.60
2023-05-10T19:05:08.340Z,2.80
2023-05-10T19:07:35.936Z,1.98
2023-05-10T19:10:03.796Z,2.78
2023-05-10T19:12:31.324Z,2.63
2023-05-10T19:14:58.830Z,2.00
2023-05-10T19:17:26.571Z,2.47
2023-05-10T19:19:56.516Z,2.28
2023-05-10T19:22:36.110Z,1.77
2023-05-10T19:25:13.250Z,0.88
2023-05-10T19:27:40.808Z,0.73
2023-05-10T19:30:08.910Z,1.20
2023-05-10T19:32:36.536Z,1.15
2023-05-10T19:35:04.301Z,1.08
2023-05-10T19:37:31.831Z,1.20
2023-05-10T19:39:59.502Z,1.35
2023-05-10T19:42:26.960Z,1.40
2023-05-10T19:44:54.408Z,1.30
2023-05-10T19:47:22.533Z,1.27
2023-05-10T19:49:56.571Z,1.80
2023-05-10T19:52:26.316Z,1.70
2023-05-10T19:54:54.588Z,1.58
2023-05-10T19:57:22.026Z,2.28
2023-05-10T19:59:49.463Z,2.13
2023-05-10T20:02:16.955Z,2.10
2023-05-10T20:04:45.160Z,1.73
2023-05-10T20:07:12.697Z,1.60
2023-05-10T20:09:40.234Z,1.95
2023-05-10T20:12:07.901Z,1.77
2023-05-10T20:14:35.327Z,1.48
2023-05-10T20:17:03.123Z,1.40
2023-05-10T20:19:30.678Z,1.63
2023-05-10T20:21:58.863Z,1.15
2023-05-10T20:24:26.288Z,1.30
2023-05-10T20:26:53.816Z,1.30
2023-05-10T20:29:21.242Z,1.40
2023-05-10T20:31:48.722Z,1.10
2023-05-10T20:34:16.327Z,1.70
2023-05-10T20:36:43.879Z,1.55
2023-05-10T20:39:11.271Z,1.23
2023-05-10T20:41:39.375Z,1.95
2023-05-10T20:44:06.983Z,2.22
2023-05-10T20:46:34.558Z,1.40
2023-05-10T20:49:02.636Z,1.45
2023-05-10T20:51:30.553Z,1.80
2023-05-10T20:53:57.980Z,1.58
2023-05-10T20:56:26.893Z,1.58
2023-05-10T20:58:54.318Z,1.52
2023-05-10T21:01:22.151Z,1.15
2023-05-10T21:03:49.547Z,1.35
2023-05-10T21:06:17.228Z,1.20
2023-05-10T21:08:44.717Z,1.30
2023-05-10T21:11:12.229Z,1.30
2023-05-10T21:13:39.855Z,1.35
2023-05-10T21:16:07.325Z,1.52
2023-05-10T21:18:34.827Z,1.50
2023-05-10T21:21:02.341Z,1.50
2023-05-10T21:23:29.712Z,1.42
2023-05-10T21:25:57.157Z,1.52
2023-05-10T21:28:24.863Z,1.33
2023-05-10T21:30:52.510Z,1.52
2023-05-10T21:33:19.968Z,1.60
2023-05-10T21:35:47.554Z,2.03
2023-05-10T21:38:15.760Z,1.95
2023-05-10T21:40:43.308Z,1.85
2023-05-10T21:43:11.384Z,1.92
2023-05-10T21:45:39.173Z,1.95
2023-05-10T21:48:06.867Z,2.15
2023-05-10T21:50:34.449Z,1.42
2023-05-10T21:53:02.280Z,1.52
2023-05-10T21:55:30.069Z,1.63
2023-05-10T21:57:58.253Z,1.58
2023-05-10T22:00:26.687Z,1.90
2023-05-10T22:02:54.194Z,1.77
2023-05-10T22:05:21.997Z,1.80
2023-05-10T22:07:49.382Z,1.80
2023-05-10T22:10:17.177Z,1.77
2023-05-10T22:12:44.835Z,1.85
2023-05-10T22:15:12.351Z,2.00
2023-05-10T22:17:40.553Z,2.65
2023-05-10T22:20:08.771Z,1.73
2023-05-10T22:22:36.916Z,2.10
2023-05-10T22:25:07.407Z,2.28
2023-05-10T22:27:35.206Z,2.70
2023-05-10T22:30:03.864Z,1.95
2023-05-10T22:32:31.971Z,1.92
2023-05-10T22:34:59.526Z,2.30
2023-05-10T22:37:26.957Z,2.42
2023-05-10T22:39:54.523Z,2.00
2023-05-10T22:42:22.065Z,1.90
2023-05-10T22:44:49.532Z,2.22
2023-05-10T22:47:17.377Z,1.90
2023-05-10T22:49:44.840Z,1.60
2023-05-10T22:52:12.826Z,1.85
2023-05-10T22:54:40.296Z,1.25
2023-05-10T22:57:07.830Z,1.73
2023-05-10T22:59:35.449Z,1.10
2023-05-10T23:02:04.048Z,1.27
2023-05-10T23:04:31.717Z,1.70
2023-05-10T23:06:59.486Z,1.33
2023-05-10T23:09:27.002Z,1.73
2023-05-10T23:11:54.529Z,1.30
2023-05-10T23:14:22.597Z,1.77
2023-05-10T23:16:51.417Z,1.23
2023-05-10T23:19:19.244Z,1.15
2023-05-10T23:21:47.181Z,0.95
2023-05-10T23:24:14.593Z,0.98
2023-05-10T23:29:11.130Z,1.17
2023-05-10T23:31:41.321Z,1.17
2023-05-10T23:34:09.488Z,1.00
2023-05-10T23:36:36.885Z,1.27
2023-05-10T23:39:04.972Z,1.23
2023-05-10T23:41:32.663Z,2.15
2023-05-10T23:44:00.776Z,1.30
2023-05-10T23:46:28.599Z,1.50
2023-05-10T23:48:56.169Z,1.17
2023-05-10T23:51:23.589Z,1.20
2023-05-10T23:53:51.154Z,1.23
2023-05-10T23:56:18.753Z,1.45
2023-05-10T23:58:46.486Z,1.20
